Time;durP1;ratioP1;P1;durP2;ratioP2;P2;SDS_P1;SDS_P2;PMS_P1;PMS_P2;Temp;Humidity;BMP_temperature;BMP_pressure;BME280_temperature;BME280_humidity;BME280_pressure;Samples;Min_cycle;Max_cycle;Signal;HPM_P1;HPM_P2
2021/06/26 00:01:38;;;;;;;2.85;1.92;;;;;;;;;;5076589;28;20386;-68
2021/06/26 00:04:05;;;;;;;3.13;2.13;;;;;;;;;;5076430;28;20072;-67
2021/06/26 00:06:33;;;;;;;3.67;2.10;;;;;;;;;;5076355;28;20029;-67
2021/06/26 00:08:58;;;;;;;3.58;2.50;;;;;;;;;;5076417;28;20043;-67
2021/06/26 00:11:23;;;;;;;6.13;1.95;;;;;;;;;;5076140;28;20454;-67
2021/06/26 00:13:49;;;;;;;4.10;2.20;;;;;;;;;;5076430;28;20021;-68
2021/06/26 00:16:14;;;;;;;3.53;2.08;;;;;;;;;;5076159;28;20457;-67
2021/06/26 00:18:39;;;;;;;3.40;2.13;;;;;;;;;;5076322;28;20556;-67
2021/06/26 00:21:05;;;;;;;4.10;2.20;;;;;;;;;;5075782;28;20029;-67
2021/06/26 00:23:30;;;;;;;2.97;1.55;;;;;;;;;;5075952;28;20205;-67
2021/06/26 00:25:55;;;;;;;4.78;2.28;;;;;;;;;;5076011;28;20016;-67
2021/06/26 00:28:21;;;;;;;4.60;3.60;;;;;;;;;;5092839;28;20039;-68
2021/06/26 00:30:46;;;;;;;4.25;3.22;;;;;;;;;;5094831;28;20039;-67
2021/06/26 00:33:11;;;;;;;6.72;2.78;;;;;;;;;;5096318;28;20020;-68
2021/06/26 00:35:37;;;;;;;2.95;2.10;;;;;;;;;;5090215;28;20034;-67
2021/06/26 00:38:02;;;;;;;3.10;2.35;;;;;;;;;;5096164;28;20040;-68
2021/06/26 00:40:27;;;;;;;7.28;5.25;;;;;;;;;;5078662;28;20016;-67
2021/06/26 00:42:52;;;;;;;4.82;3.58;;;;;;;;;;5088004;28;20067;-67
2021/06/26 00:45:18;;;;;;;5.47;4.05;;;;;;;;;;5082847;28;20035;-67
2021/06/26 00:47:44;;;;;;;5.30;3.80;;;;;;;;;;5094650;28;20024;-67
2021/06/26 00:50:14;;;;;;;5.65;3.83;;;;;;;;;;5086122;28;20388;-67
2021/06/26 00:52:39;;;;;;;5.35;3.30;;;;;;;;;;5079879;28;20115;-67
2021/06/26 00:55:05;;;;;;;4.13;2.70;;;;;;;;;;5077277;28;20508;-67
2021/06/26 00:57:33;;;;;;;4.38;2.70;;;;;;;;;;5086173;28;20025;-67
2021/06/26 00:59:59;;;;;;;4.30;3.45;;;;;;;;;;5084180;28;20031;-68
2021/06/26 01:02:24;;;;;;;4.93;3.35;;;;;;;;;;5076179;28;20028;-67
2021/06/26 01:04:49;;;;;;;8.05;5.43;;;;;;;;;;5082332;28;20048;-68
2021/06/26 01:07:14;;;;;;;5.47;3.70;;;;;;;;;;5095828;28;20297;-68
2021/06/26 01:09:40;;;;;;;6.57;4.72;;;;;;;;;;5082956;28;20042;-68
2021/06/26 01:12:05;;;;;;;5.30;3.35;;;;;;;;;;5089999;28;20477;-67
2021/06/26 01:14:30;;;;;;;5.10;3.58;;;;;;;;;;5085641;28;20063;-68
2021/06/26 01:17:03;;;;;;;4.47;3.30;;;;;;;;;;5089727;28;20056;-68
2021/06/26 01:19:28;;;;;;;6.28;2.97;;;;;;;;;;5088737;28;20036;-67
2021/06/26 01:21:54;;;;;;;6.32;4.65;;;;;;;;;;5076505;28;20370;-67
2021/06/26 01:24:20;;;;;;;4.55;3.40;;;;;;;;;;5074732;28;20435;-68
2021/06/26 01:26:45;;;;;;;8.48;4.75;;;;;;;;;;5089426;28;20028;-67
2021/06/26 01:29:11;;;;;;;4.72;3.30;;;;;;;;;;5087156;28;20028;-67
2021/06/26 01:31:36;;;;;;;6.88;4.53;;;;;;;;;;5077310;28;20401;-68
2021/06/26 01:34:02;;;;;;;10.18;5.72;;;;;;;;;;5075924;28;20056;-67
2021/06/26 01:36:27;;;;;;;10.82;6.38;;;;;;;;;;5089753;28;20366;-67
2021/06/26 01:38:54;;;;;;;8.10;5.88;;;;;;;;;;5094512;28;20477;-67
2021/06/26 01:41:19;;;;;;;8.02;5.30;;;;;;;;;;5090320;28;20128;-67
2021/06/26 01:43:44;;;;;;;12.82;6.40;;;;;;;;;;5086027;28;20491;-68
2021/06/26 01:46:09;;;;;;;8.82;6.00;;;;;;;;;;5085570;28;20040;-67
2021/06/26 01:48:35;;;;;;;10.20;6.88;;;;;;;;;;5091817;28;20056;-68
2021/06/26 01:51:00;;;;;;;9.95;6.70;;;;;;;;;;5084714;28;20033;-67
2021/06/26 01:53:25;;;;;;;8.02;6.50;;;;;;;;;;5081583;28;20457;-67
2021/06/26 01:55:52;;;;;;;14.50;6.75;;;;;;;;;;5094225;28;20115;-66
2021/06/26 01:58:18;;;;;;;9.57;6.53;;;;;;;;;;5088124;28;20441;-68
2021/06/26 02:00:43;;;;;;;9.15;6.35;;;;;;;;;;5086804;28;20031;-67
2021/06/26 02:03:08;;;;;;;8.88;5.97;;;;;;;;;;5085459;28;20032;-67
2021/06/26 02:05:33;;;;;;;9.57;6.85;;;;;;;;;;5093945;28;20062;-67
2021/06/26 02:08:01;;;;;;;11.32;7.75;;;;;;;;;;5092801;28;20028;-68
2021/06/26 02:10:26;;;;;;;9.32;6.90;;;;;;;;;;5089571;28;20043;-68
2021/06/26 02:12:51;;;;;;;8.55;6.60;;;;;;;;;;5074381;28;20036;-68
2021/06/26 02:15:17;;;;;;;7.35;5.60;;;;;;;;;;5080872;28;20020;-67
2021/06/26 02:17:42;;;;;;;11.57;8.30;;;;;;;;;;5093033;28;20056;-67
2021/06/26 02:20:08;;;;;;;15.07;8.63;;;;;;;;;;5092224;28;20034;-67
2021/06/26 02:22:34;;;;;;;16.48;9.30;;;;;;;;;;5091149;28;20027;-67
2021/06/26 02:25:03;;;;;;;9.95;7.70;;;;;;;;;;5074688;28;20033;-68
2021/06/26 02:27:28;;;;;;;9.07;6.53;;;;;;;;;;5073675;28;20043;-67
2021/06/26 02:29:54;;;;;;;10.43;6.68;;;;;;;;;;5083202;28;20016;-67
2021/06/26 02:32:19;;;;;;;9.82;7.22;;;;;;;;;;5073797;28;20033;-68
2021/06/26 02:34:44;;;;;;;12.80;8.05;;;;;;;;;;5088603;28;20032;-67
2021/06/26 02:37:09;;;;;;;12.13;8.05;;;;;;;;;;5089243;28;20028;-65
2021/06/26 02:39:35;;;;;;;13.15;8.13;;;;;;;;;;5073648;28;20111;-65
2021/06/26 02:42:00;;;;;;;11.45;7.80;;;;;;;;;;5074622;28;20460;-65
2021/06/26 02:44:25;;;;;;;15.63;9.25;;;;;;;;;;5074573;28;20023;-65
2021/06/26 02:46:50;;;;;;;12.57;7.57;;;;;;;;;;5082281;28;20059;-65
2021/06/26 02:49:16;;;;;;;13.07;7.43;;;;;;;;;;5091798;28;20039;-66
2021/06/26 02:51:42;;;;;;;13.13;8.25;;;;;;;;;;5074320;28;20032;-65
2021/06/26 02:54:07;;;;;;;10.98;6.68;;;;;;;;;;5080668;28;20031;-65
2021/06/26 02:56:32;;;;;;;13.30;8.25;;;;;;;;;;5086225;28;20031;-65
2021/06/26 02:58:57;;;;;;;12.45;7.95;;;;;;;;;;5073325;28;20021;-66
2021/06/26 03:01:23;;;;;;;10.82;7.65;;;;;;;;;;5090868;28;20460;-65
2021/06/26 03:03:48;;;;;;;9.98;7.50;;;;;;;;;;5072969;28;20446;-65
2021/06/26 03:06:13;;;;;;;11.77;7.50;;;;;;;;;;5088442;28;20024;-65
2021/06/26 03:08:39;;;;;;;11.45;7.30;;;;;;;;;;5072911;28;20028;-65
2021/06/26 03:11:04;;;;;;;10.40;7.45;;;;;;;;;;5080566;28;20044;-65
2021/06/26 03:13:29;;;;;;;11.85;8.10;;;;;;;;;;5077470;28;20024;-66
2021/06/26 03:15:54;;;;;;;11.27;8.20;;;;;;;;;;5085844;28;20020;-66
2021/06/26 03:18:20;;;;;;;11.88;8.05;;;;;;;;;;5075548;28;20499;-65
2021/06/26 03:20:45;;;;;;;12.18;8.55;;;;;;;;;;5084335;28;20028;-65
2021/06/26 03:23:11;;;;;;;13.07;8.40;;;;;;;;;;5078117;28;20086;-64
2021/06/26 03:25:36;;;;;;;13.73;8.88;;;;;;;;;;5073634;28;20033;-65
2021/06/26 03:28:01;;;;;;;14.35;9.18;;;;;;;;;;5072858;28;20458;-65
2021/06/26 03:30:27;;;;;;;11.48;8.10;;;;;;;;;;5078700;28;20032;-65
2021/06/26 03:32:52;;;;;;;12.82;7.70;;;;;;;;;;5076560;28;20067;-65
2021/06/26 03:35:17;;;;;;;13.55;8.90;;;;;;;;;;5082058;28;20100;-65
2021/06/26 03:37:43;;;;;;;10.43;7.28;;;;;;;;;;5085005;28;20373;-65
2021/06/26 03:40:09;;;;;;;12.43;7.80;;;;;;;;;;5072969;28;20409;-65
2021/06/26 03:42:34;;;;;;;10.70;7.60;;;;;;;;;;5076789;28;20020;-65
2021/06/26 03:45:00;;;;;;;20.50;7.32;;;;;;;;;;5074536;28;20031;-65
2021/06/26 03:47:26;;;;;;;10.45;6.75;;;;;;;;;;5080223;28;20027;-65
2021/06/26 03:49:51;;;;;;;12.30;6.75;;;;;;;;;;5076612;28;20095;-64
2021/06/26 03:52:17;;;;;;;15.27;6.65;;;;;;;;;;5084815;28;20457;-66
2021/06/26 03:54:42;;;;;;;6.70;5.05;;;;;;;;;;5073882;28;20060;-65
2021/06/26 03:57:07;;;;;;;10.50;5.88;;;;;;;;;;5078361;28;20388;-65
2021/06/26 03:59:32;;;;;;;8.55;5.38;;;;;;;;;;5075923;28;20122;-65
2021/06/26 04:01:58;;;;;;;10.02;6.00;;;;;;;;;;5080435;28;20032;-66
2021/06/26 04:04:23;;;;;;;9.45;5.95;;;;;;;;;;5078883;28;20439;-66
2021/06/26 04:06:48;;;;;;;7.45;5.47;;;;;;;;;;5072548;28;20032;-66
2021/06/26 04:09:14;;;;;;;10.73;5.05;;;;;;;;;;5078957;28;20357;-65
2021/06/26 04:11:39;;;;;;;7.25;4.75;;;;;;;;;;5086849;28;20122;-66
2021/06/26 04:14:05;;;;;;;7.57;4.60;;;;;;;;;;5091602;28;20024;-65
2021/06/26 04:16:31;;;;;;;6.63;5.38;;;;;;;;;;5081142;28;20033;-65
2021/06/26 04:18:56;;;;;;;8.00;5.60;;;;;;;;;;5083840;28;20067;-65
2021/06/26 04:21:22;;;;;;;6.18;4.20;;;;;;;;;;5084652;28;20021;-66
2021/06/26 04:23:47;;;;;;;7.55;3.83;;;;;;;;;;5091746;28;20063;-66
2021/06/26 04:26:12;;;;;;;6.50;3.70;;;;;;;;;;5074764;28;20099;-65
2021/06/26 04:28:37;;;;;;;8.73;3.80;;;;;;;;;;5073309;28;20025;-66
2021/06/26 04:31:03;;;;;;;7.93;4.50;;;;;;;;;;5081559;28;20040;-65
2021/06/26 04:33:28;;;;;;;7.40;3.92;;;;;;;;;;5075803;28;20099;-65
2021/06/26 04:35:54;;;;;;;7.55;3.70;;;;;;;;;;5082108;28;20096;-65
2021/06/26 04:38:22;;;;;;;8.15;3.47;;;;;;;;;;5081274;28;20028;-66
2021/06/26 04:40:51;;;;;;;10.73;3.55;;;;;;;;;;5081577;28;20103;-64
2021/06/26 04:43:17;;;;;;;6.75;3.25;;;;;;;;;;5096127;28;20376;-66
2021/06/26 04:45:43;;;;;;;6.70;3.35;;;;;;;;;;5092664;28;20030;-65
2021/06/26 04:48:08;;;;;;;11.07;3.30;;;;;;;;;;5086836;28;20024;-65
2021/06/26 04:50:33;;;;;;;9.18;3.30;;;;;;;;;;5086187;28;20105;-65
2021/06/26 04:52:58;;;;;;;8.82;3.40;;;;;;;;;;5090669;28;20025;-66
2021/06/26 04:55:24;;;;;;;9.23;4.03;;;;;;;;;;5076710;28;20065;-65
2021/06/26 04:57:49;;;;;;;5.60;2.95;;;;;;;;;;5075804;28;20104;-65
2021/06/26 05:00:15;;;;;;;8.35;3.15;;;;;;;;;;5076632;28;20025;-67
2021/06/26 05:02:40;;;;;;;7.63;3.70;;;;;;;;;;5085644;28;20069;-68
2021/06/26 05:05:05;;;;;;;9.98;3.75;;;;;;;;;;5094674;28;20445;-67
2021/06/26 05:07:31;;;;;;;11.40;3.25;;;;;;;;;;5076361;28;20029;-67
2021/06/26 05:09:56;;;;;;;8.43;3.50;;;;;;;;;;5075291;28;20077;-66
2021/06/26 05:12:21;;;;;;;10.02;3.30;;;;;;;;;;5095441;28;20032;-67
2021/06/26 05:14:47;;;;;;;6.57;3.42;;;;;;;;;;5089693;28;20105;-68
2021/06/26 05:17:12;;;;;;;11.73;4.90;;;;;;;;;;5082447;28;20093;-65
2021/06/26 05:19:37;;;;;;;7.05;3.50;;;;;;;;;;5074920;28;20024;-66
2021/06/26 05:22:03;;;;;;;9.02;3.70;;;;;;;;;;5092804;28;20091;-66
2021/06/26 05:24:28;;;;;;;11.77;3.65;;;;;;;;;;5076437;28;20540;-65
2021/06/26 05:26:53;;;;;;;8.18;3.90;;;;;;;;;;5082861;28;20020;-65
2021/06/26 05:29:19;;;;;;;14.70;4.03;;;;;;;;;;5082120;28;20132;-65
2021/06/26 05:31:44;;;;;;;10.95;3.35;;;;;;;;;;5084390;28;20038;-65
2021/06/26 05:34:09;;;;;;;14.55;4.03;;;;;;;;;;5095169;28;20521;-66
2021/06/26 05:36:34;;;;;;;12.52;5.47;;;;;;;;;;5094159;28;20123;-65
2021/06/26 05:39:01;;;;;;;11.13;3.67;;;;;;;;;;5094849;28;20460;-66
2021/06/26 05:41:26;;;;;;;7.43;3.95;;;;;;;;;;5081767;28;20081;-65
2021/06/26 05:43:52;;;;;;;9.70;3.97;;;;;;;;;;5092120;28;20409;-66
2021/06/26 05:46:17;;;;;;;8.98;3.90;;;;;;;;;;5086269;28;20063;-66
2021/06/26 05:48:42;;;;;;;13.63;4.30;;;;;;;;;;5074296;28;20033;-66
2021/06/26 05:51:08;;;;;;;12.00;5.07;;;;;;;;;;5074618;28;20055;-66
2021/06/26 05:53:33;;;;;;;11.95;4.57;;;;;;;;;;5086853;28;20044;-65
2021/06/26 05:56:01;;;;;;;13.02;4.07;;;;;;;;;;5086032;28;20056;-65
2021/06/26 05:58:30;;;;;;;13.88;4.72;;;;;;;;;;5087225;28;20028;-66
2021/06/26 06:00:56;;;;;;;14.68;4.20;;;;;;;;;;5085801;28;20025;-66
2021/06/26 06:03:21;;;;;;;11.40;5.22;;;;;;;;;;5087941;28;20217;-65
2021/06/26 06:05:47;;;;;;;15.13;4.43;;;;;;;;;;5081780;28;20028;-65
2021/06/26 06:08:13;;;;;;;9.07;4.38;;;;;;;;;;5087212;28;20349;-65
2021/06/26 06:10:39;;;;;;;10.30;5.07;;;;;;;;;;5086497;28;20037;-66
2021/06/26 06:13:04;;;;;;;14.50;6.45;;;;;;;;;;5081234;28;20036;-66
2021/06/26 06:15:29;;;;;;;12.88;4.68;;;;;;;;;;5087488;28;20517;-64
2021/06/26 06:17:54;;;;;;;13.38;4.53;;;;;;;;;;5084169;28;20026;-65
2021/06/26 06:20:20;;;;;;;10.23;5.72;;;;;;;;;;5093367;28;20032;-65
2021/06/26 06:22:45;;;;;;;18.70;5.30;;;;;;;;;;5081465;28;20040;-65
2021/06/26 06:25:12;;;;;;;13.82;5.03;;;;;;;;;;5087204;28;20033;-65
2021/06/26 06:27:41;;;;;;;9.70;5.38;;;;;;;;;;5092881;28;20492;-65
2021/06/26 06:30:07;;;;;;;8.07;4.63;;;;;;;;;;5082534;28;20025;-65
2021/06/26 06:32:33;;;;;;;13.00;4.70;;;;;;;;;;5075621;28;20473;-64
2021/06/26 06:34:58;;;;;;;9.02;4.40;;;;;;;;;;5093459;28;20469;-65
2021/06/26 06:37:24;;;;;;;9.77;4.97;;;;;;;;;;5086211;28;20452;-67
2021/06/26 06:39:50;;;;;;;16.50;4.97;;;;;;;;;;5090566;28;20028;-67
2021/06/26 06:42:15;;;;;;;11.45;4.20;;;;;;;;;;5085804;28;20025;-67
2021/06/26 06:44:40;;;;;;;11.95;4.53;;;;;;;;;;5074629;28;20021;-68
2021/06/26 06:47:05;;;;;;;10.88;4.45;;;;;;;;;;5077884;28;20036;-67
2021/06/26 06:49:31;;;;;;;15.93;4.75;;;;;;;;;;5091503;28;20032;-68
2021/06/26 06:51:56;;;;;;;11.02;4.45;;;;;;;;;;5082284;28;20036;-67
2021/06/26 06:54:21;;;;;;;11.95;4.65;;;;;;;;;;5074036;28;20029;-67
2021/06/26 06:56:47;;;;;;;13.38;4.57;;;;;;;;;;5078812;28;20020;-68
2021/06/26 06:59:12;;;;;;;14.77;5.55;;;;;;;;;;5073521;28;20038;-67
2021/06/26 07:01:37;;;;;;;14.10;5.18;;;;;;;;;;5077153;28;20111;-67
2021/06/26 07:04:03;;;;;;;12.07;5.47;;;;;;;;;;5099280;28;20054;-67
2021/06/26 07:06:28;;;;;;;16.05;5.30;;;;;;;;;;5101101;28;20614;-67
2021/06/26 07:08:53;;;;;;;11.48;4.88;;;;;;;;;;5101095;28;20111;-67
2021/06/26 07:11:18;;;;;;;8.93;5.40;;;;;;;;;;5094777;28;20067;-67
2021/06/26 07:13:44;;;;;;;14.63;4.93;;;;;;;;;;5091238;28;20111;-67
2021/06/26 07:16:09;;;;;;;12.60;4.95;;;;;;;;;;5082506;28;20066;-66
2021/06/26 07:18:34;;;;;;;12.32;5.22;;;;;;;;;;5085001;28;20033;-67
2021/06/26 07:20:59;;;;;;;11.60;5.65;;;;;;;;;;5073154;28;20049;-68
2021/06/26 07:23:25;;;;;;;11.35;5.65;;;;;;;;;;5077590;28;20024;-68
2021/06/26 07:25:50;;;;;;;8.85;5.65;;;;;;;;;;5074099;28;20380;-66
2021/06/26 07:28:15;;;;;;;11.27;5.18;;;;;;;;;;5086883;28;20153;-67
2021/06/26 07:30:41;;;;;;;13.23;5.30;;;;;;;;;;5088163;28;20049;-67
2021/06/26 07:33:06;;;;;;;16.77;6.07;;;;;;;;;;5092351;28;20032;-68
2021/06/26 07:35:31;;;;;;;13.98;7.05;;;;;;;;;;5090040;28;20095;-67
2021/06/26 07:37:56;;;;;;;12.63;6.78;;;;;;;;;;5088010;28;20392;-65
2021/06/26 07:40:24;;;;;;;13.27;6.28;;;;;;;;;;5075419;28;20040;-65
2021/06/26 07:42:49;;;;;;;13.52;5.75;;;;;;;;;;5090204;28;20020;-65
2021/06/26 07:45:14;;;;;;;15.25;6.28;;;;;;;;;;5087047;28;20111;-65
2021/06/26 07:47:40;;;;;;;14.55;7.10;;;;;;;;;;5086634;28;20036;-65
2021/06/26 07:50:06;;;;;;;11.30;5.65;;;;;;;;;;5091360;28;20027;-65
2021/06/26 07:52:31;;;;;;;12.32;5.80;;;;;;;;;;5091459;28;20390;-65
2021/06/26 07:54:56;;;;;;;10.65;4.78;;;;;;;;;;5089452;28;20119;-65
2021/06/26 07:57:22;;;;;;;11.60;4.45;;;;;;;;;;5092323;28;20027;-65
2021/06/26 07:59:47;;;;;;;15.95;5.90;;;;;;;;;;5090965;28;20496;-65
2021/06/26 08:02:12;;;;;;;11.70;4.93;;;;;;;;;;5086790;28;20085;-65
2021/06/26 08:04:37;;;;;;;12.15;4.97;;;;;;;;;;5092229;28;20047;-64
2021/06/26 08:07:03;;;;;;;12.88;4.75;;;;;;;;;;5083130;28;20155;-65
2021/06/26 08:09:28;;;;;;;7.75;4.45;;;;;;;;;;5080399;28;20021;-66
2021/06/26 08:11:53;;;;;;;8.32;4.13;;;;;;;;;;5079936;28;20051;-65
2021/06/26 08:14:19;;;;;;;9.95;4.30;;;;;;;;;;5079859;28;20035;-65
2021/06/26 08:16:44;;;;;;;14.82;4.22;;;;;;;;;;5079221;28;20032;-65
2021/06/26 08:19:09;;;;;;;8.02;3.20;;;;;;;;;;5086336;28;20024;-66
2021/06/26 08:21:34;;;;;;;11.43;4.72;;;;;;;;;;5082872;28;20043;-66
2021/06/26 08:24:00;;;;;;;10.02;3.40;;;;;;;;;;5085526;28;20035;-66
2021/06/26 08:26:25;;;;;;;8.20;3.80;;;;;;;;;;5081861;28;20058;-67
2021/06/26 08:28:51;;;;;;;16.65;4.57;;;;;;;;;;5077755;28;20036;-68
2021/06/26 08:31:16;;;;;;;6.63;3.15;;;;;;;;;;5083768;28;20144;-68
2021/06/26 08:33:41;;;;;;;4.88;3.10;;;;;;;;;;5092872;28;20099;-67
2021/06/26 08:36:07;;;;;;;8.43;3.22;;;;;;;;;;5091520;28;20454;-68
2021/06/26 08:38:32;;;;;;;12.00;3.95;;;;;;;;;;5080598;28;20209;-66
2021/06/26 08:40:58;;;;;;;10.10;4.03;;;;;;;;;;5076865;28;20036;-66
2021/06/26 08:43:23;;;;;;;8.27;3.92;;;;;;;;;;5080753;28;20436;-66
2021/06/26 08:45:49;;;;;;;21.25;3.50;;;;;;;;;;5091202;28;20036;-66
2021/06/26 08:48:14;;;;;;;11.35;3.67;;;;;;;;;;5087102;28;20032;-65
2021/06/26 08:50:40;;;;;;;7.32;3.50;;;;;;;;;;5082957;28;20043;-66
2021/06/26 08:53:05;;;;;;;10.18;3.78;;;;;;;;;;5092472;28;20057;-68
2021/06/26 08:55:31;;;;;;;7.25;3.35;;;;;;;;;;5091541;28;20091;-67
2021/06/26 08:57:56;;;;;;;8.45;3.92;;;;;;;;;;5090000;28;20032;-68
2021/06/26 09:00:23;;;;;;;10.02;4.57;;;;;;;;;;5075342;28;20103;-67
2021/06/26 09:02:49;;;;;;;10.23;3.70;;;;;;;;;;5077353;28;20453;-68
2021/06/26 09:05:24;;;;;;;6.82;3.53;;;;;;;;;;5082838;28;20123;-67
2021/06/26 09:07:50;;;;;;;8.13;3.58;;;;;;;;;;5073356;28;20057;-67
2021/06/26 09:10:22;;;;;;;5.63;3.25;;;;;;;;;;5088886;28;20400;-67
2021/06/26 09:12:49;;;;;;;9.50;4.25;;;;;;;;;;5090222;28;20101;-64
2021/06/26 09:15:24;;;;;;;6.75;2.70;;;;;;;;;;5092237;28;20028;-65
2021/06/26 09:17:50;;;;;;;6.57;2.78;;;;;;;;;;5091708;28;20054;-65
2021/06/26 09:20:16;;;;;;;10.20;3.90;;;;;;;;;;5092231;28;20044;-65
2021/06/26 09:22:42;;;;;;;7.88;3.60;;;;;;;;;;5091152;28;20043;-65
2021/06/26 09:25:28;;;;;;;10.73;3.65;;;;;;;;;;5091833;28;20098;-65
2021/06/26 09:27:54;;;;;;;4.97;3.28;;;;;;;;;;5091680;28;20104;-65
2021/06/26 09:30:40;;;;;;;8.20;3.25;;;;;;;;;;5090536;28;20081;-65
2021/06/26 09:33:15;;;;;;;10.05;4.00;;;;;;;;;;5091624;28;20507;-65
2021/06/26 09:35:43;;;;;;;6.93;3.70;;;;;;;;;;5091103;28;20036;-65
2021/06/26 09:38:09;;;;;;;6.95;3.33;;;;;;;;;;5091712;28;20389;-65
2021/06/26 09:40:36;;;;;;;6.47;2.97;;;;;;;;;;5091850;28;20035;-65
2021/06/26 09:43:01;;;;;;;5.03;3.00;;;;;;;;;;5091740;28;20035;-65
2021/06/26 09:45:27;;;;;;;6.15;4.03;;;;;;;;;;5091184;28;20036;-65
2021/06/26 09:47:52;;;;;;;5.03;3.25;;;;;;;;;;5091384;28;20024;-65
2021/06/26 09:50:21;;;;;;;6.07;3.28;;;;;;;;;;5090994;28;20063;-65
2021/06/26 09:52:47;;;;;;;5.72;3.65;;;;;;;;;;5090679;28;20039;-66
2021/06/26 09:55:12;;;;;;;5.88;3.60;;;;;;;;;;5093132;28;20028;-66
2021/06/26 09:57:38;;;;;;;7.18;3.75;;;;;;;;;;5093298;28;20165;-66
2021/06/26 10:00:04;;;;;;;5.88;3.40;;;;;;;;;;5094220;28;20034;-66
2021/06/26 10:02:29;;;;;;;7.35;3.45;;;;;;;;;;5094438;28;20120;-67
2021/06/26 10:04:57;;;;;;;7.47;3.35;;;;;;;;;;5094235;28;20473;-65
2021/06/26 10:07:22;;;;;;;9.02;3.10;;;;;;;;;;5093809;28;20369;-65
2021/06/26 10:09:47;;;;;;;6.35;3.00;;;;;;;;;;5093468;28;20031;-66
2021/06/26 10:12:13;;;;;;;6.35;3.25;;;;;;;;;;5093280;28;20044;-65
2021/06/26 10:14:39;;;;;;;8.63;3.30;;;;;;;;;;5094495;28;20033;-66
2021/06/26 10:17:04;;;;;;;9.07;3.47;;;;;;;;;;5094159;28;20016;-66
2021/06/26 10:19:30;;;;;;;6.57;3.05;;;;;;;;;;5093738;28;20438;-66
2021/06/26 10:21:55;;;;;;;6.68;2.85;;;;;;;;;;5091972;28;20059;-66
2021/06/26 10:24:20;;;;;;;9.50;3.20;;;;;;;;;;5092819;28;20099;-65
2021/06/26 10:26:46;;;;;;;7.47;2.97;;;;;;;;;;5093530;28;20055;-66
2021/06/26 10:29:13;;;;;;;6.18;2.90;;;;;;;;;;5091452;28;20024;-66
2021/06/26 10:31:43;;;;;;;5.35;3.28;;;;;;;;;;5093170;28;20036;-69
2021/06/26 10:34:18;;;;;;;5.35;3.30;;;;;;;;;;5092340;28;20114;-69
2021/06/26 10:36:51;;;;;;;5.30;2.72;;;;;;;;;;5092777;28;20434;-69
2021/06/26 10:39:20;;;;;;;3.83;2.65;;;;;;;;;;5091020;28;20031;-69
2021/06/26 10:42:01;;;;;;;4.97;2.75;;;;;;;;;;5093221;28;20020;-68
2021/06/26 10:44:26;;;;;;;6.70;2.80;;;;;;;;;;5093428;28;20031;-65
2021/06/26 10:46:52;;;;;;;5.10;2.80;;;;;;;;;;5093415;28;20396;-66
2021/06/26 10:49:27;;;;;;;7.38;2.60;;;;;;;;;;5093440;28;20101;-66
2021/06/26 10:51:52;;;;;;;6.10;2.90;;;;;;;;;;5090685;28;20044;-66
2021/06/26 10:54:19;;;;;;;6.45;2.80;;;;;;;;;;5093066;28;20502;-65
2021/06/26 10:56:45;;;;;;;6.93;2.75;;;;;;;;;;5092329;28;20464;-65
2021/06/26 10:59:12;;;;;;;6.25;2.58;;;;;;;;;;5093019;28;20035;-66
2021/06/26 11:01:38;;;;;;;5.85;2.80;;;;;;;;;;5092780;28;20046;-68
2021/06/26 11:04:10;;;;;;;9.25;2.53;;;;;;;;;;5093269;28;20405;-68
2021/06/26 11:06:36;;;;;;;6.13;3.00;;;;;;;;;;5092744;28;20471;-68
2021/06/26 11:09:12;;;;;;;11.45;3.40;;;;;;;;;;5093489;28;20064;-68
2021/06/26 11:11:50;;;;;;;5.22;2.72;;;;;;;;;;5093128;28;20040;-68
2021/06/26 11:14:24;;;;;;;6.88;3.53;;;;;;;;;;5083475;28;20133;-67
2021/06/26 11:16:53;;;;;;;6.10;2.95;;;;;;;;;;5075361;28;20185;-68
2021/06/26 11:19:20;;;;;;;6.97;3.50;;;;;;;;;;5069863;28;20051;-65
2021/06/26 11:21:49;;;;;;;11.45;3.35;;;;;;;;;;5069497;28;20404;-65
2021/06/26 11:24:15;;;;;;;6.00;3.55;;;;;;;;;;5069641;28;20469;-65
2021/06/26 11:26:54;;;;;;;6.47;3.22;;;;;;;;;;5067063;28;20044;-65
2021/06/26 11:29:22;;;;;;;7.10;3.40;;;;;;;;;;5082763;28;20503;-67
2021/06/26 11:31:47;;;;;;;10.10;3.67;;;;;;;;;;5069432;28;20087;-67
2021/06/26 11:34:13;;;;;;;8.45;4.28;;;;;;;;;;5068552;28;20449;-68
2021/06/26 11:36:38;;;;;;;7.13;3.20;;;;;;;;;;5084747;28;20028;-67
2021/06/26 11:39:03;;;;;;;6.85;3.15;;;;;;;;;;5089130;28;20475;-67
2021/06/26 11:41:29;;;;;;;6.68;3.15;;;;;;;;;;5089392;28;20200;-68
2021/06/26 11:43:54;;;;;;;4.10;2.72;;;;;;;;;;5089622;28;20071;-68
2021/06/26 11:46:19;;;;;;;6.05;3.10;;;;;;;;;;5093048;28;20426;-68
2021/06/26 11:48:49;;;;;;;5.13;3.00;;;;;;;;;;5096016;28;20525;-68
2021/06/26 11:51:14;;;;;;;7.20;3.03;;;;;;;;;;5097007;28;20079;-68
2021/06/26 11:53:41;;;;;;;4.97;2.78;;;;;;;;;;5096805;28;20082;-68
2021/06/26 11:56:06;;;;;;;4.78;3.60;;;;;;;;;;5096191;28;20051;-68
2021/06/26 11:58:41;;;;;;;5.82;2.80;;;;;;;;;;5095517;28;20453;-68
2021/06/26 12:01:10;;;;;;;5.88;3.55;;;;;;;;;;5095758;28;20067;-67
2021/06/26 12:03:36;;;;;;;5.25;3.08;;;;;;;;;;5094962;28;20024;-67
2021/06/26 12:06:02;;;;;;;5.22;2.90;;;;;;;;;;5095264;28;20108;-68
2021/06/26 12:08:30;;;;;;;8.63;3.08;;;;;;;;;;5095761;28;20405;-67
2021/06/26 12:10:55;;;;;;;6.88;3.00;;;;;;;;;;5095544;28;20075;-67
2021/06/26 12:13:20;;;;;;;6.60;2.92;;;;;;;;;;5093767;28;20070;-68
2021/06/26 12:15:46;;;;;;;5.72;2.58;;;;;;;;;;5095384;28;20016;-68
2021/06/26 12:18:11;;;;;;;4.60;2.63;;;;;;;;;;5095783;28;20130;-65
2021/06/26 12:20:38;;;;;;;8.05;3.53;;;;;;;;;;5094040;28;20047;-65
2021/06/26 12:23:04;;;;;;;6.13;2.53;;;;;;;;;;5094806;28;20024;-66
2021/06/26 12:25:34;;;;;;;4.18;2.85;;;;;;;;;;5095861;28;20376;-65
2021/06/26 12:28:00;;;;;;;4.03;2.80;;;;;;;;;;5095935;28;20078;-66
2021/06/26 12:30:26;;;;;;;4.80;2.50;;;;;;;;;;5095421;28;20024;-67
2021/06/26 12:33:01;;;;;;;3.45;2.50;;;;;;;;;;5095044;28;20035;-68
2021/06/26 12:35:28;;;;;;;3.72;2.33;;;;;;;;;;5095395;28;20035;-69
2021/06/26 12:37:53;;;;;;;5.80;2.40;;;;;;;;;;5092839;28;20032;-67
2021/06/26 12:40:21;;;;;;;3.13;2.13;;;;;;;;;;5095483;28;20028;-67
2021/06/26 12:43:10;;;;;;;6.45;2.50;;;;;;;;;;5095185;28;20055;-68
2021/06/26 12:45:35;;;;;;;5.50;2.13;;;;;;;;;;5092543;28;20027;-68
2021/06/26 12:48:12;;;;;;;4.07;2.20;;;;;;;;;;5093523;28;20032;-68
2021/06/26 12:50:46;;;;;;;5.25;2.55;;;;;;;;;;5091409;28;20036;-68
2021/06/26 12:53:12;;;;;;;7.50;2.33;;;;;;;;;;5090257;28;20032;-65
2021/06/26 12:55:37;;;;;;;6.65;2.95;;;;;;;;;;5094737;28;20035;-64
2021/06/26 12:58:07;;;;;;;7.68;2.88;;;;;;;;;;5093765;28;20035;-66
2021/06/26 13:00:32;;;;;;;4.57;2.65;;;;;;;;;;5095090;28;20115;-65
2021/06/26 13:02:57;;;;;;;5.00;2.13;;;;;;;;;;5094868;28;20532;-66
2021/06/26 13:05:24;;;;;;;4.13;2.45;;;;;;;;;;5095153;28;20097;-65
2021/06/26 13:08:06;;;;;;;2.97;2.17;;;;;;;;;;5095057;28;20020;-65
2021/06/26 13:10:32;;;;;;;4.55;2.20;;;;;;;;;;5093837;28;20624;-65
2021/06/26 13:12:57;;;;;;;3.13;2.10;;;;;;;;;;5094741;28;20047;-65
2021/06/26 13:15:23;;;;;;;5.47;2.72;;;;;;;;;;5095255;28;20020;-65
2021/06/26 13:17:48;;;;;;;3.78;2.40;;;;;;;;;;5094658;28;20066;-65
2021/06/26 13:20:14;;;;;;;5.00;2.78;;;;;;;;;;5094547;28;20038;-64
2021/06/26 13:22:40;;;;;;;3.92;2.55;;;;;;;;;;5093631;28;20024;-65
2021/06/26 13:25:06;;;;;;;4.47;2.15;;;;;;;;;;5093578;28;20067;-65
2021/06/26 13:27:31;;;;;;;5.15;2.25;;;;;;;;;;5090688;28;20449;-65
2021/06/26 13:29:56;;;;;;;2.72;1.80;;;;;;;;;;5093230;28;20031;-65
2021/06/26 13:32:22;;;;;;;6.82;2.72;;;;;;;;;;5089973;28;20464;-64
2021/06/26 13:34:47;;;;;;;5.10;2.88;;;;;;;;;;5083143;28;20036;-65
2021/06/26 13:37:13;;;;;;;6.18;2.53;;;;;;;;;;5091266;28;20592;-65
2021/06/26 13:39:38;;;;;;;4.80;2.25;;;;;;;;;;5091590;28;20123;-65
2021/06/26 13:42:04;;;;;;;3.85;2.00;;;;;;;;;;5091413;28;20036;-67
2021/06/26 13:44:29;;;;;;;3.60;2.38;;;;;;;;;;5090543;28;20024;-67
2021/06/26 13:46:54;;;;;;;3.33;2.08;;;;;;;;;;5091439;28;20031;-67
2021/06/26 13:49:20;;;;;;;3.38;2.25;;;;;;;;;;5091567;28;20430;-68
2021/06/26 13:51:45;;;;;;;4.82;1.98;;;;;;;;;;5091495;28;20463;-67
2021/06/26 13:54:11;;;;;;;3.75;2.05;;;;;;;;;;5090055;28;20032;-67
2021/06/26 13:56:38;;;;;;;2.95;2.25;;;;;;;;;;5091056;28;20068;-68
2021/06/26 13:59:03;;;;;;;3.70;2.13;;;;;;;;;;5091699;28;20024;-67
2021/06/26 14:01:29;;;;;;;5.75;2.28;;;;;;;;;;5091415;28;20043;-67
2021/06/26 14:03:54;;;;;;;3.05;1.80;;;;;;;;;;5092429;28;20056;-68
2021/06/26 14:06:20;;;;;;;4.78;2.10;;;;;;;;;;5094290;28;20031;-65
2021/06/26 14:08:45;;;;;;;6.05;2.10;;;;;;;;;;5094025;28;20380;-65
2021/06/26 14:11:10;;;;;;;3.08;2.20;;;;;;;;;;5093736;28;20078;-65
2021/06/26 14:13:37;;;;;;;4.80;2.88;;;;;;;;;;5082695;28;20055;-65
2021/06/26 14:16:02;;;;;;;2.80;1.90;;;;;;;;;;5076437;28;20039;-64
2021/06/26 14:18:28;;;;;;;4.95;2.08;;;;;;;;;;5070267;28;20036;-65
2021/06/26 14:20:53;;;;;;;3.80;2.15;;;;;;;;;;5070413;28;20024;-64
2021/06/26 14:23:18;;;;;;;5.43;2.05;;;;;;;;;;5070678;28;20082;-64
2021/06/26 14:25:44;;;;;;;3.75;2.00;;;;;;;;;;5081924;28;20491;-66
2021/06/26 14:28:09;;;;;;;4.30;2.25;;;;;;;;;;5090842;28;20028;-65
2021/06/26 14:30:35;;;;;;;6.18;2.70;;;;;;;;;;5091017;28;20374;-68
2021/06/26 14:33:00;;;;;;;3.40;1.80;;;;;;;;;;5090783;28;20081;-67